sensor_id;sensor_type;location;lat;lon;timestamp;P1;durP1;ratioP1;P2;durP2;ratioP2
77417;SDS011;66490;51.484;0.026;2023-11-19T00:00:08;32.50;;;5.10;;
77417;SDS011;66490;51.484;0.026;2023-11-19T00:02:55;32.92;;;4.72;;
77417;SDS011;66490;51.484;0.026;2023-11-19T00:05:39;25.67;;;4.30;;
77417;SDS011;66490;51.484;0.026;2023-11-19T00:08:23;32.80;;;5.88;;
77417;SDS011;66490;51.484;0.026;2023-11-19T00:11:09;29.67;;;4.72;;
77417;SDS011;66490;51.484;0.026;2023-11-19T00:13:52;26.88;;;3.47;;
77417;SDS011;66490;51.484;0.026;2023-11-19T00:16:37;27.33;;;4.43;;
77417;SDS011;66490;51.484;0.026;2023-11-19T00:19:22;30.47;;;3.47;;
77417;SDS011;66490;51.484;0.026;2023-11-19T00:22:06;37.33;;;4.70;;
77417;SDS011;66490;51.484;0.026;2023-11-19T00:24:50;31.75;;;5.07;;
77417;SDS011;66490;51.484;0.026;2023-11-19T00:27:34;36.35;;;4.25;;
77417;SDS011;66490;51.484;0.026;2023-11-19T00:30:18;27.80;;;5.07;;
77417;SDS011;66490;51.484;0.026;2023-11-19T00:33:03;19.30;;;3.50;;
77417;SDS011;66490;51.484;0.026;2023-11-19T00:35:47;22.48;;;4.55;;
77417;SDS011;66490;51.484;0.026;2023-11-19T00:38:32;31.95;;;5.97;;
77417;SDS011;66490;51.484;0.026;2023-11-19T00:41:16;36.67;;;4.65;;
77417;SDS011;66490;51.484;0.026;2023-11-19T00:44:00;29.13;;;4.07;;
77417;SDS011;66490;51.484;0.026;2023-11-19T00:46:44;31.73;;;4.87;;
77417;SDS011;66490;51.484;0.026;2023-11-19T00:49:30;29.10;;;4.43;;
77417;SDS011;66490;51.484;0.026;2023-11-19T00:52:14;34.58;;;4.68;;
77417;SDS011;66490;51.484;0.026;2023-11-19T00:54:58;26.20;;;3.35;;
77417;SDS011;66490;51.484;0.026;2023-11-19T00:57:42;31.88;;;5.15;;
77417;SDS011;66490;51.484;0.026;2023-11-19T01:00:26;30.90;;;4.20;;
77417;SDS011;66490;51.484;0.026;2023-11-19T01:03:11;26.33;;;4.25;;
77417;SDS011;66490;51.484;0.026;2023-11-19T01:05:55;31.55;;;3.90;;
77417;SDS011;66490;51.484;0.026;2023-11-19T01:08:39;28.23;;;3.22;;
77417;SDS011;66490;51.484;0.026;2023-11-19T01:11:23;28.85;;;4.68;;
77417;SDS011;66490;51.484;0.026;2023-11-19T01:14:08;36.97;;;4.77;;
77417;SDS011;66490;51.484;0.026;2023-11-19T01:16:52;32.88;;;4.72;;
77417;SDS011;66490;51.484;0.026;2023-11-19T01:19:38;32.47;;;4.80;;
77417;SDS011;66490;51.484;0.026;2023-11-19T01:22:22;27.35;;;3.75;;
77417;SDS011;66490;51.484;0.026;2023-11-19T01:25:07;35.22;;;5.78;;
77417;SDS011;66490;51.484;0.026;2023-11-19T01:27:51;32.13;;;4.93;;
77417;SDS011;66490;51.484;0.026;2023-11-19T01:30:35;37.45;;;4.15;;
77417;SDS011;66490;51.484;0.026;2023-11-19T01:33:19;33.38;;;4.75;;
77417;SDS011;66490;51.484;0.026;2023-11-19T01:36:03;30.67;;;4.05;;
77417;SDS011;66490;51.484;0.026;2023-11-19T01:38:48;28.02;;;4.45;;
77417;SDS011;66490;51.484;0.026;2023-11-19T01:41:35;28.83;;;4.33;;
77417;SDS011;66490;51.484;0.026;2023-11-19T01:44:20;28.77;;;4.75;;
77417;SDS011;66490;51.484;0.026;2023-11-19T01:47:04;36.47;;;5.15;;
77417;SDS011;66490;51.484;0.026;2023-11-19T01:49:48;33.03;;;4.43;;
77417;SDS011;66490;51.484;0.026;2023-11-19T01:52:33;32.42;;;4.93;;
77417;SDS011;66490;51.484;0.026;2023-11-19T01:55:21;32.97;;;4.13;;
77417;SDS011;66490;51.484;0.026;2023-11-19T01:58:06;35.33;;;4.63;;
77417;SDS011;66490;51.484;0.026;2023-11-19T02:00:51;37.53;;;6.00;;
77417;SDS011;66490;51.484;0.026;2023-11-19T02:03:35;30.58;;;4.03;;
77417;SDS011;66490;51.484;0.026;2023-11-19T02:06:19;32.47;;;4.57;;
77417;SDS011;66490;51.484;0.026;2023-11-19T02:09:03;31.93;;;4.27;;
77417;SDS011;66490;51.484;0.026;2023-11-19T02:11:51;36.05;;;4.75;;
77417;SDS011;66490;51.484;0.026;2023-11-19T02:14:37;34.17;;;4.53;;
77417;SDS011;66490;51.484;0.026;2023-11-19T02:17:31;36.78;;;5.00;;
77417;SDS011;66490;51.484;0.026;2023-11-19T02:20:15;31.77;;;5.10;;
77417;SDS011;66490;51.484;0.026;2023-11-19T02:22:59;26.00;;;4.13;;
77417;SDS011;66490;51.484;0.026;2023-11-19T02:25:43;35.75;;;4.82;;
77417;SDS011;66490;51.484;0.026;2023-11-19T02:28:28;28.67;;;4.47;;
77417;SDS011;66490;51.484;0.026;2023-11-19T02:31:12;29.30;;;4.07;;
77417;SDS011;66490;51.484;0.026;2023-11-19T02:33:56;31.08;;;4.70;;
77417;SDS011;66490;51.484;0.026;2023-11-19T02:36:40;35.07;;;4.07;;
77417;SDS011;66490;51.484;0.026;2023-11-19T02:39:27;30.17;;;3.80;;
77417;SDS011;66490;51.484;0.026;2023-11-19T02:42:12;27.30;;;3.60;;
77417;SDS011;66490;51.484;0.026;2023-11-19T02:44:57;30.58;;;3.88;;
77417;SDS011;66490;51.484;0.026;2023-11-19T02:47:41;36.78;;;4.75;;
77417;SDS011;66490;51.484;0.026;2023-11-19T02:50:26;31.60;;;3.87;;
77417;SDS011;66490;51.484;0.026;2023-11-19T02:53:10;34.00;;;4.57;;
77417;SDS011;66490;51.484;0.026;2023-11-19T02:55:54;28.92;;;4.60;;
77417;SDS011;66490;51.484;0.026;2023-11-19T02:58:44;27.30;;;3.28;;
77417;SDS011;66490;51.484;0.026;2023-11-19T03:01:29;36.25;;;5.15;;
77417;SDS011;66490;51.484;0.026;2023-11-19T03:04:13;29.23;;;4.10;;
77417;SDS011;66490;51.484;0.026;2023-11-19T03:07:00;32.72;;;4.35;;
77417;SDS011;66490;51.484;0.026;2023-11-19T03:09:45;24.08;;;3.80;;
77417;SDS011;66490;51.484;0.026;2023-11-19T03:12:29;28.67;;;3.72;;
77417;SDS011;66490;51.484;0.026;2023-11-19T03:15:13;27.85;;;3.90;;
77417;SDS011;66490;51.484;0.026;2023-11-19T03:17:58;31.40;;;4.47;;
77417;SDS011;66490;51.484;0.026;2023-11-19T03:20:42;28.60;;;3.38;;
77417;SDS011;66490;51.484;0.026;2023-11-19T03:23:25;38.70;;;4.53;;
77417;SDS011;66490;51.484;0.026;2023-11-19T03:26:12;30.17;;;4.32;;
77417;SDS011;66490;51.484;0.026;2023-11-19T03:28:57;23.98;;;2.90;;
77417;SDS011;66490;51.484;0.026;2023-11-19T03:31:44;31.73;;;3.80;;
77417;SDS011;66490;51.484;0.026;2023-11-19T03:34:28;29.63;;;4.32;;
77417;SDS011;66490;51.484;0.026;2023-11-19T03:37:12;27.25;;;3.80;;
77417;SDS011;66490;51.484;0.026;2023-11-19T03:40:00;28.67;;;3.55;;
77417;SDS011;66490;51.484;0.026;2023-11-19T03:42:44;35.05;;;3.97;;
77417;SDS011;66490;51.484;0.026;2023-11-19T03:45:28;26.63;;;4.53;;
77417;SDS011;66490;51.484;0.026;2023-11-19T03:48:13;32.00;;;4.45;;
77417;SDS011;66490;51.484;0.026;2023-11-19T03:50:59;30.23;;;4.82;;
77417;SDS011;66490;51.484;0.026;2023-11-19T03:53:43;24.30;;;3.58;;
77417;SDS011;66490;51.484;0.026;2023-11-19T03:56:28;22.35;;;4.30;;
77417;SDS011;66490;51.484;0.026;2023-11-19T03:59:12;32.87;;;3.87;;
77417;SDS011;66490;51.484;0.026;2023-11-19T04:01:56;27.75;;;3.85;;
77417;SDS011;66490;51.484;0.026;2023-11-19T04:04:40;28.80;;;4.57;;
77417;SDS011;66490;51.484;0.026;2023-11-19T04:07:23;27.77;;;3.80;;
77417;SDS011;66490;51.484;0.026;2023-11-19T04:10:07;26.38;;;4.05;;
77417;SDS011;66490;51.484;0.026;2023-11-19T04:12:51;27.13;;;3.40;;
77417;SDS011;66490;51.484;0.026;2023-11-19T04:15:35;30.20;;;4.22;;
77417;SDS011;66490;51.484;0.026;2023-11-19T04:18:19;26.05;;;3.72;;
77417;SDS011;66490;51.484;0.026;2023-11-19T04:21:05;22.38;;;3.83;;
77417;SDS011;66490;51.484;0.026;2023-11-19T04:23:49;26.20;;;4.20;;
77417;SDS011;66490;51.484;0.026;2023-11-19T04:26:34;23.37;;;3.50;;
77417;SDS011;66490;51.484;0.026;2023-11-19T04:29:18;25.98;;;3.50;;
77417;SDS011;66490;51.484;0.026;2023-11-19T04:32:02;29.52;;;4.22;;
77417;SDS011;66490;51.484;0.026;2023-11-19T04:34:45;23.20;;;3.72;;
77417;SDS011;66490;51.484;0.026;2023-11-19T04:37:30;30.80;;;4.57;;
77417;SDS011;66490;51.484;0.026;2023-11-19T04:40:13;27.93;;;3.77;;
77417;SDS011;66490;51.484;0.026;2023-11-19T04:42:58;32.50;;;3.67;;
77417;SDS011;66490;51.484;0.026;2023-11-19T04:45:41;33.70;;;4.68;;
77417;SDS011;66490;51.484;0.026;2023-11-19T04:48:25;26.30;;;3.50;;
77417;SDS011;66490;51.484;0.026;2023-11-19T04:51:10;32.47;;;4.40;;
77417;SDS011;66490;51.484;0.026;2023-11-19T04:53:54;27.83;;;2.87;;
77417;SDS011;66490;51.484;0.026;2023-11-19T04:56:38;29.48;;;3.90;;
77417;SDS011;66490;51.484;0.026;2023-11-19T04:59:22;26.73;;;4.22;;
77417;SDS011;66490;51.484;0.026;2023-11-19T05:02:06;26.27;;;4.72;;
77417;SDS011;66490;51.484;0.026;2023-11-19T05:04:50;29.52;;;3.92;;
77417;SDS011;66490;51.484;0.026;2023-11-19T05:07:34;29.87;;;3.50;;
77417;SDS011;66490;51.484;0.026;2023-11-19T05:10:18;31.52;;;4.32;;
77417;SDS011;66490;51.484;0.026;2023-11-19T05:13:02;24.25;;;4.13;;
77417;SDS011;66490;51.484;0.026;2023-11-19T05:15:46;25.45;;;3.65;;
77417;SDS011;66490;51.484;0.026;2023-11-19T05:18:30;36.40;;;4.80;;
77417;SDS011;66490;51.484;0.026;2023-11-19T05:21:14;31.83;;;3.17;;
77417;SDS011;66490;51.484;0.026;2023-11-19T05:23:58;34.28;;;5.05;;
77417;SDS011;66490;51.484;0.026;2023-11-19T05:26:42;20.13;;;2.83;;
77417;SDS011;66490;51.484;0.026;2023-11-19T05:29:26;31.85;;;3.80;;
77417;SDS011;66490;51.484;0.026;2023-11-19T05:32:11;27.60;;;4.82;;
77417;SDS011;66490;51.484;0.026;2023-11-19T05:34:55;26.63;;;3.70;;
77417;SDS011;66490;51.484;0.026;2023-11-19T05:37:39;24.05;;;3.13;;
77417;SDS011;66490;51.484;0.026;2023-11-19T05:40:23;25.38;;;3.97;;
77417;SDS011;66490;51.484;0.026;2023-11-19T05:43:07;24.40;;;3.72;;
77417;SDS011;66490;51.484;0.026;2023-11-19T05:45:51;23.65;;;4.50;;
77417;SDS011;66490;51.484;0.026;2023-11-19T05:48:35;25.67;;;4.97;;
77417;SDS011;66490;51.484;0.026;2023-11-19T05:51:19;26.23;;;3.83;;
77417;SDS011;66490;51.484;0.026;2023-11-19T05:54:03;20.92;;;2.95;;
77417;SDS011;66490;51.484;0.026;2023-11-19T05:56:50;25.45;;;3.50;;
77417;SDS011;66490;51.484;0.026;2023-11-19T05:59:37;27.05;;;4.25;;
77417;SDS011;66490;51.484;0.026;2023-11-19T06:02:21;30.03;;;3.97;;
77417;SDS011;66490;51.484;0.026;2023-11-19T06:05:05;27.52;;;4.20;;
77417;SDS011;66490;51.484;0.026;2023-11-19T06:07:50;27.10;;;3.30;;
77417;SDS011;66490;51.484;0.026;2023-11-19T06:10:35;25.77;;;4.32;;
77417;SDS011;66490;51.484;0.026;2023-11-19T06:13:19;25.52;;;3.97;;
77417;SDS011;66490;51.484;0.026;2023-11-19T06:16:04;27.57;;;3.10;;
77417;SDS011;66490;51.484;0.026;2023-11-19T06:18:48;23.45;;;3.60;;
77417;SDS011;66490;51.484;0.026;2023-11-19T06:21:31;21.40;;;3.13;;
77417;SDS011;66490;51.484;0.026;2023-11-19T06:24:16;27.83;;;4.05;;
77417;SDS011;66490;51.484;0.026;2023-11-19T06:27:00;30.20;;;4.60;;
77417;SDS011;66490;51.484;0.026;2023-11-19T06:29:44;27.57;;;3.10;;
77417;SDS011;66490;51.484;0.026;2023-11-19T06:32:28;22.27;;;2.92;;
77417;SDS011;66490;51.484;0.026;2023-11-19T06:35:12;30.40;;;3.95;;
77417;SDS011;66490;51.484;0.026;2023-11-19T06:37:57;28.23;;;3.58;;
77417;SDS011;66490;51.484;0.026;2023-11-19T06:40:42;24.13;;;4.20;;
77417;SDS011;66490;51.484;0.026;2023-11-19T06:43:26;26.27;;;2.93;;
77417;SDS011;66490;51.484;0.026;2023-11-19T06:46:16;23.05;;;3.53;;
77417;SDS011;66490;51.484;0.026;2023-11-19T06:49:00;28.83;;;5.00;;
77417;SDS011;66490;51.484;0.026;2023-11-19T06:51:45;25.83;;;3.05;;
77417;SDS011;66490;51.484;0.026;2023-11-19T06:54:30;26.80;;;4.30;;
77417;SDS011;66490;51.484;0.026;2023-11-19T06:57:14;33.10;;;4.70;;
77417;SDS011;66490;51.484;0.026;2023-11-19T06:59:58;24.40;;;2.95;;
77417;SDS011;66490;51.484;0.026;2023-11-19T07:02:42;24.98;;;4.07;;
77417;SDS011;66490;51.484;0.026;2023-11-19T07:05:28;18.88;;;3.63;;
77417;SDS011;66490;51.484;0.026;2023-11-19T07:08:12;30.13;;;4.35;;
77417;SDS011;66490;51.484;0.026;2023-11-19T07:11:03;27.53;;;3.93;;
77417;SDS011;66490;51.484;0.026;2023-11-19T07:13:47;27.05;;;4.32;;
77417;SDS011;66490;51.484;0.026;2023-11-19T07:16:32;23.95;;;3.33;;
77417;SDS011;66490;51.484;0.026;2023-11-19T07:19:18;18.95;;;3.00;;
77417;SDS011;66490;51.484;0.026;2023-11-19T07:22:02;23.60;;;3.80;;
77417;SDS011;66490;51.484;0.026;2023-11-19T07:24:47;19.47;;;2.53;;
77417;SDS011;66490;51.484;0.026;2023-11-19T07:27:31;24.77;;;3.95;;
77417;SDS011;66490;51.484;0.026;2023-11-19T07:30:15;25.95;;;3.00;;
77417;SDS011;66490;51.484;0.026;2023-11-19T07:32:59;20.75;;;2.88;;
77417;SDS011;66490;51.484;0.026;2023-11-19T07:35:42;20.15;;;2.92;;
77417;SDS011;66490;51.484;0.026;2023-11-19T07:38:27;34.23;;;4.30;;
77417;SDS011;66490;51.484;0.026;2023-11-19T07:41:11;23.58;;;3.25;;
77417;SDS011;66490;51.484;0.026;2023-11-19T07:43:56;21.88;;;3.42;;
77417;SDS011;66490;51.484;0.026;2023-11-19T07:46:40;22.00;;;3.55;;
77417;SDS011;66490;51.484;0.026;2023-11-19T07:49:26;19.98;;;2.90;;
77417;SDS011;66490;51.484;0.026;2023-11-19T07:52:09;21.30;;;3.67;;
77417;SDS011;66490;51.484;0.026;2023-11-19T07:54:54;24.58;;;2.88;;
77417;SDS011;66490;51.484;0.026;2023-11-19T07:57:37;23.90;;;4.07;;
77417;SDS011;66490;51.484;0.026;2023-11-19T08:00:21;25.75;;;3.67;;
77417;SDS011;66490;51.484;0.026;2023-11-19T08:03:06;23.73;;;3.70;;
77417;SDS011;66490;51.484;0.026;2023-11-19T08:05:51;20.70;;;2.83;;
77417;SDS011;66490;51.484;0.026;2023-11-19T08:08:35;21.35;;;2.75;;
77417;SDS011;66490;51.484;0.026;2023-11-19T08:11:21;21.38;;;3.20;;
77417;SDS011;66490;51.484;0.026;2023-11-19T08:14:05;21.55;;;2.55;;
77417;SDS011;66490;51.484;0.026;2023-11-19T08:16:49;29.52;;;3.22;;
77417;SDS011;66490;51.484;0.026;2023-11-19T08:19:34;27.00;;;3.10;;
77417;SDS011;66490;51.484;0.026;2023-11-19T08:22:17;27.90;;;3.53;;
77417;SDS011;66490;51.484;0.026;2023-11-19T08:25:01;19.05;;;2.75;;
77417;SDS011;66490;51.484;0.026;2023-11-19T08:27:45;21.25;;;2.30;;
77417;SDS011;66490;51.484;0.026;2023-11-19T08:30:30;23.52;;;2.70;;
77417;SDS011;66490;51.484;0.026;2023-11-19T08:33:14;19.87;;;2.90;;
77417;SDS011;66490;51.484;0.026;2023-11-19T08:36:00;19.60;;;3.75;;
77417;SDS011;66490;51.484;0.026;2023-11-19T08:38:44;17.40;;;2.85;;
77417;SDS011;66490;51.484;0.026;2023-11-19T08:41:28;19.88;;;2.60;;
77417;SDS011;66490;51.484;0.026;2023-11-19T08:44:12;21.73;;;4.32;;
77417;SDS011;66490;51.484;0.026;2023-11-19T08:46:56;16.07;;;2.20;;
77417;SDS011;66490;51.484;0.026;2023-11-19T08:49:40;17.98;;;1.90;;
77417;SDS011;66490;51.484;0.026;2023-11-19T08:52:32;19.63;;;2.50;;
77417;SDS011;66490;51.484;0.026;2023-11-19T08:55:16;20.20;;;2.15;;
77417;SDS011;66490;51.484;0.026;2023-11-19T08:58:00;17.58;;;2.17;;
77417;SDS011;66490;51.484;0.026;2023-11-19T09:00:47;17.03;;;2.37;;
77417;SDS011;66490;51.484;0.026;2023-11-19T09:03:31;13.95;;;2.17;;
77417;SDS011;66490;51.484;0.026;2023-11-19T09:06:20;20.67;;;3.03;;
77417;SDS011;66490;51.484;0.026;2023-11-19T09:09:05;21.65;;;2.38;;
77417;SDS011;66490;51.484;0.026;2023-11-19T09:11:49;19.27;;;2.88;;
77417;SDS011;66490;51.484;0.026;2023-11-19T09:14:35;27.77;;;2.77;;
77417;SDS011;66490;51.484;0.026;2023-11-19T09:17:20;18.15;;;2.33;;
77417;SDS011;66490;51.484;0.026;2023-11-19T09:20:05;19.35;;;3.05;;
77417;SDS011;66490;51.484;0.026;2023-11-19T09:22:49;22.83;;;2.90;;
77417;SDS011;66490;51.484;0.026;2023-11-19T09:25:33;17.90;;;3.25;;
77417;SDS011;66490;51.484;0.026;2023-11-19T09:28:18;25.20;;;2.87;;
77417;SDS011;66490;51.484;0.026;2023-11-19T09:31:02;21.15;;;2.60;;
77417;SDS011;66490;51.484;0.026;2023-11-19T09:33:49;15.75;;;2.80;;
77417;SDS011;66490;51.484;0.026;2023-11-19T09:36:32;17.55;;;2.65;;
77417;SDS011;66490;51.484;0.026;2023-11-19T09:39:16;20.60;;;2.72;;
77417;SDS011;66490;51.484;0.026;2023-11-19T09:42:01;26.50;;;3.43;;
77417;SDS011;66490;51.484;0.026;2023-11-19T09:45:01;17.48;;;2.67;;
77417;SDS011;66490;51.484;0.026;2023-11-19T09:47:47;28.38;;;3.60;;
77417;SDS011;66490;51.484;0.026;2023-11-19T09:50:31;21.27;;;3.47;;
77417;SDS011;66490;51.484;0.026;2023-11-19T09:53:15;29.13;;;3.35;;
77417;SDS011;66490;51.484;0.026;2023-11-19T09:56:00;23.43;;;2.97;;
77417;SDS011;66490;51.484;0.026;2023-11-19T09:58:44;25.23;;;2.80;;
77417;SDS011;66490;51.484;0.026;2023-11-19T10:01:28;18.23;;;2.78;;
77417;SDS011;66490;51.484;0.026;2023-11-19T10:04:14;24.60;;;2.58;;
77417;SDS011;66490;51.484;0.026;2023-11-19T10:06:59;22.92;;;3.60;;
77417;SDS011;66490;51.484;0.026;2023-11-19T10:09:46;26.73;;;3.20;;
77417;SDS011;66490;51.484;0.026;2023-11-19T10:12:30;24.70;;;3.22;;
77417;SDS011;66490;51.484;0.026;2023-11-19T10:15:17;21.58;;;3.28;;
77417;SDS011;66490;51.484;0.026;2023-11-19T10:18:03;21.95;;;3.47;;
77417;SDS011;66490;51.484;0.026;2023-11-19T10:20:50;19.98;;;4.00;;
77417;SDS011;66490;51.484;0.026;2023-11-19T10:23:50;28.77;;;3.40;;
77417;SDS011;66490;51.484;0.026;2023-11-19T10:26:35;19.80;;;2.97;;
77417;SDS011;66490;51.484;0.026;2023-11-19T10:29:20;17.83;;;2.53;;
77417;SDS011;66490;51.484;0.026;2023-11-19T10:32:04;16.52;;;2.42;;
77417;SDS011;66490;51.484;0.026;2023-11-19T10:34:49;20.70;;;2.85;;
77417;SDS011;66490;51.484;0.026;2023-11-19T10:37:33;22.17;;;1.83;;
77417;SDS011;66490;51.484;0.026;2023-11-19T10:40:21;19.00;;;2.92;;
77417;SDS011;66490;51.484;0.026;2023-11-19T10:43:04;17.60;;;2.33;;
77417;SDS011;66490;51.484;0.026;2023-11-19T10:45:49;14.85;;;2.15;;
77417;SDS011;66490;51.484;0.026;2023-11-19T10:48:33;15.02;;;2.45;;
77417;SDS011;66490;51.484;0.026;2023-11-19T10:51:19;21.83;;;2.63;;
77417;SDS011;66490;51.484;0.026;2023-11-19T10:54:07;21.15;;;2.20;;
77417;SDS011;66490;51.484;0.026;2023-11-19T10:56:58;14.93;;;2.15;;
77417;SDS011;66490;51.484;0.026;2023-11-19T10:59:42;12.93;;;1.70;;
77417;SDS011;66490;51.484;0.026;2023-11-19T11:02:27;13.02;;;2.20;;
77417;SDS011;66490;51.484;0.026;2023-11-19T11:05:12;17.90;;;2.03;;
77417;SDS011;66490;51.484;0.026;2023-11-19T11:07:56;15.52;;;1.55;;
77417;SDS011;66490;51.484;0.026;2023-11-19T11:10:43;13.20;;;2.15;;
77417;SDS011;66490;51.484;0.026;2023-11-19T11:13:28;13.80;;;2.00;;
77417;SDS011;66490;51.484;0.026;2023-11-19T11:16:13;11.80;;;1.50;;
77417;SDS011;66490;51.484;0.026;2023-11-19T11:18:57;15.20;;;1.80;;
77417;SDS011;66490;51.484;0.026;2023-11-19T11:21:42;11.73;;;1.48;;
77417;SDS011;66490;51.484;0.026;2023-11-19T11:27:26;15.55;;;1.35;;
77417;SDS011;66490;51.484;0.026;2023-11-19T11:30:20;15.75;;;2.10;;
77417;SDS011;66490;51.484;0.026;2023-11-19T11:36:06;17.20;;;2.83;;
77417;SDS011;66490;51.484;0.026;2023-11-19T11:38:54;17.10;;;3.80;;
77417;SDS011;66490;51.484;0.026;2023-11-19T11:41:41;16.20;;;2.28;;
77417;SDS011;66490;51.484;0.026;2023-11-19T11:44:57;15.93;;;2.20;;
77417;SDS011;66490;51.484;0.026;2023-11-19T11:50:25;16.52;;;1.75;;
77417;SDS011;66490;51.484;0.026;2023-11-19T11:53:13;11.18;;;1.83;;
77417;SDS011;66490;51.484;0.026;2023-11-19T11:55:57;14.82;;;2.72;;
77417;SDS011;66490;51.484;0.026;2023-11-19T11:58:42;15.23;;;1.90;;
77417;SDS011;66490;51.484;0.026;2023-11-19T12:01:26;14.23;;;2.30;;
77417;SDS011;66490;51.484;0.026;2023-11-19T12:04:12;11.27;;;1.67;;
77417;SDS011;66490;51.484;0.026;2023-11-19T12:07:29;14.65;;;2.20;;
77417;SDS011;66490;51.484;0.026;2023-11-19T12:10:06;9.82;;;1.50;;
77417;SDS011;66490;51.484;0.026;2023-11-19T12:13:00;10.20;;;2.00;;
77417;SDS011;66490;51.484;0.026;2023-11-19T12:18:40;12.43;;;1.65;;
77417;SDS011;66490;51.484;0.026;2023-11-19T12:21:28;13.95;;;2.10;;
77417;SDS011;66490;51.484;0.026;2023-11-19T12:24:13;11.27;;;1.52;;
77417;SDS011;66490;51.484;0.026;2023-11-19T12:26:58;16.58;;;1.77;;
77417;SDS011;66490;51.484;0.026;2023-11-19T12:29:42;13.93;;;1.97;;
77417;SDS011;66490;51.484;0.026;2023-11-19T12:32:36;11.57;;;2.08;;
77417;SDS011;66490;51.484;0.026;2023-11-19T12:35:20;9.98;;;1.70;;
77417;SDS011;66490;51.484;0.026;2023-11-19T12:38:04;11.02;;;1.50;;
77417;SDS011;66490;51.484;0.026;2023-11-19T12:43:47;10.33;;;1.90;;
77417;SDS011;66490;51.484;0.026;2023-11-19T12:46:31;15.57;;;2.28;;
77417;SDS011;66490;51.484;0.026;2023-11-19T12:49:17;15.48;;;2.17;;
77417;SDS011;66490;51.484;0.026;2023-11-19T12:52:01;11.50;;;1.98;;
77417;SDS011;66490;51.484;0.026;2023-11-19T12:54:45;11.70;;;1.95;;
77417;SDS011;66490;51.484;0.026;2023-11-19T12:57:35;14.73;;;2.30;;
77417;SDS011;66490;51.484;0.026;2023-11-19T13:00:20;11.25;;;1.60;;
77417;SDS011;66490;51.484;0.026;2023-11-19T13:03:04;9.77;;;1.63;;
77417;SDS011;66490;51.484;0.026;2023-11-19T13:05:48;13.52;;;1.58;;
77417;SDS011;66490;51.484;0.026;2023-11-19T13:08:36;14.15;;;1.75;;
77417;SDS011;66490;51.484;0.026;2023-11-19T13:11:31;8.20;;;1.57;;
77417;SDS011;66490;51.484;0.026;2023-11-19T13:14:15;10.90;;;1.65;;
77417;SDS011;66490;51.484;0.026;2023-11-19T13:17:00;12.18;;;1.90;;
77417;SDS011;66490;51.484;0.026;2023-11-19T13:19:46;18.55;;;2.47;;
77417;SDS011;66490;51.484;0.026;2023-11-19T13:22:30;10.50;;;1.50;;
77417;SDS011;66490;51.484;0.026;2023-11-19T13:25:14;13.40;;;1.57;;
77417;SDS011;66490;51.484;0.026;2023-11-19T13:27:58;10.65;;;2.10;;
77417;SDS011;66490;51.484;0.026;2023-11-19T13:30:43;9.27;;;1.88;;
77417;SDS011;66490;51.484;0.026;2023-11-19T13:33:27;10.38;;;1.77;;
77417;SDS011;66490;51.484;0.026;2023-11-19T13:36:11;12.25;;;1.85;;
77417;SDS011;66490;51.484;0.026;2023-11-19T13:38:55;11.67;;;1.20;;
77417;SDS011;66490;51.484;0.026;2023-11-19T13:41:42;12.30;;;1.63;;
77417;SDS011;66490;51.484;0.026;2023-11-19T13:44:27;13.57;;;2.13;;
77417;SDS011;66490;51.484;0.026;2023-11-19T13:47:11;10.25;;;1.70;;
77417;SDS011;66490;51.484;0.026;2023-11-19T13:49:55;10.63;;;1.98;;
77417;SDS011;66490;51.484;0.026;2023-11-19T13:52:40;11.57;;;1.20;;
77417;SDS011;66490;51.484;0.026;2023-11-19T13:55:24;14.18;;;1.75;;
77417;SDS011;66490;51.484;0.026;2023-11-19T13:58:08;12.45;;;1.83;;
77417;SDS011;66490;51.484;0.026;2023-11-19T14:00:52;7.65;;;1.92;;
77417;SDS011;66490;51.484;0.026;2023-11-19T14:03:36;10.43;;;2.58;;
77417;SDS011;66490;51.484;0.026;2023-11-19T14:06:20;7.70;;;0.90;;
77417;SDS011;66490;51.484;0.026;2023-11-19T14:09:06;11.05;;;1.90;;
77417;SDS011;66490;51.484;0.026;2023-11-19T14:11:50;12.65;;;1.20;;
77417;SDS011;66490;51.484;0.026;2023-11-19T14:14:35;14.25;;;1.20;;
77417;SDS011;66490;51.484;0.026;2023-11-19T14:17:19;8.65;;;1.17;;
77417;SDS011;66490;51.484;0.026;2023-11-19T14:20:03;11.57;;;1.50;;
77417;SDS011;66490;51.484;0.026;2023-11-19T14:22:56;8.35;;;1.05;;
77417;SDS011;66490;51.484;0.026;2023-11-19T14:25:40;11.98;;;1.70;;
77417;SDS011;66490;51.484;0.026;2023-11-19T14:28:24;10.52;;;1.15;;
77417;SDS011;66490;51.484;0.026;2023-11-19T14:31:10;9.35;;;2.03;;
77417;SDS011;66490;51.484;0.026;2023-11-19T14:33:54;10.17;;;0.97;;
77417;SDS011;66490;51.484;0.026;2023-11-19T14:36:38;9.20;;;1.50;;
77417;SDS011;66490;51.484;0.026;2023-11-19T14:39:22;8.85;;;1.42;;
77417;SDS011;66490;51.484;0.026;2023-11-19T14:42:05;10.23;;;1.23;;
77417;SDS011;66490;51.484;0.026;2023-11-19T14:44:49;10.27;;;1.58;;
77417;SDS011;66490;51.484;0.026;2023-11-19T14:47:33;6.90;;;1.20;;
77417;SDS011;66490;51.484;0.026;2023-11-19T14:50:18;8.77;;;1.58;;
77417;SDS011;66490;51.484;0.026;2023-11-19T14:53:03;8.15;;;1.58;;
77417;SDS011;66490;51.484;0.026;2023-11-19T14:55:47;9.55;;;2.17;;
77417;SDS011;66490;51.484;0.026;2023-11-19T14:58:31;9.05;;;1.88;;
77417;SDS011;66490;51.484;0.026;2023-11-19T15:01:15;7.63;;;1.10;;
77417;SDS011;66490;51.484;0.026;2023-11-19T15:03:59;9.63;;;1.08;;
77417;SDS011;66490;51.484;0.026;2023-11-19T15:06:43;9.07;;;1.20;;
77417;SDS011;66490;51.484;0.026;2023-11-19T15:09:27;7.90;;;1.38;;
77417;SDS011;66490;51.484;0.026;2023-11-19T15:12:11;8.73;;;1.25;;
77417;SDS011;66490;51.484;0.026;2023-11-19T15:14:55;7.10;;;1.37;;
77417;SDS011;66490;51.484;0.026;2023-11-19T15:17:39;9.60;;;1.20;;
77417;SDS011;66490;51.484;0.026;2023-11-19T15:20:23;6.70;;;1.05;;
77417;SDS011;66490;51.484;0.026;2023-11-19T15:23:08;8.75;;;1.30;;
77417;SDS011;66490;51.484;0.026;2023-11-19T15:25:56;12.70;;;1.80;;
77417;SDS011;66490;51.484;0.026;2023-11-19T15:28:41;8.17;;;1.10;;
77417;SDS011;66490;51.484;0.026;2023-11-19T15:31:25;9.95;;;1.00;;
77417;SDS011;66490;51.484;0.026;2023-11-19T15:34:08;11.80;;;1.13;;
77417;SDS011;66490;51.484;0.026;2023-11-19T15:36:53;8.50;;;1.30;;
77417;SDS011;66490;51.484;0.026;2023-11-19T15:39:37;9.68;;;0.77;;
77417;SDS011;66490;51.484;0.026;2023-11-19T15:42:21;6.20;;;0.70;;
77417;SDS011;66490;51.484;0.026;2023-11-19T15:45:05;9.13;;;0.93;;
77417;SDS011;66490;51.484;0.026;2023-11-19T15:47:50;5.95;;;0.95;;
77417;SDS011;66490;51.484;0.026;2023-11-19T15:50:34;10.07;;;1.13;;
77417;SDS011;66490;51.484;0.026;2023-11-19T15:53:18;11.02;;;1.05;;
77417;SDS011;66490;51.484;0.026;2023-11-19T15:56:02;8.33;;;1.63;;
77417;SDS011;66490;51.484;0.026;2023-11-19T15:58:46;9.32;;;1.10;;
77417;SDS011;66490;51.484;0.026;2023-11-19T16:01:30;6.70;;;0.80;;
77417;SDS011;66490;51.484;0.026;2023-11-19T16:04:14;5.97;;;1.58;;
77417;SDS011;66490;51.484;0.026;2023-11-19T16:06:58;7.35;;;1.08;;
77417;SDS011;66490;51.484;0.026;2023-11-19T16:09:42;5.73;;;1.10;;
77417;SDS011;66490;51.484;0.026;2023-11-19T16:12:27;7.68;;;1.15;;
77417;SDS011;66490;51.484;0.026;2023-11-19T16:15:11;5.82;;;1.20;;
77417;SDS011;66490;51.484;0.026;2023-11-19T16:17:56;7.15;;;0.88;;
77417;SDS011;66490;51.484;0.026;2023-11-19T16:20:42;8.52;;;1.13;;
77417;SDS011;66490;51.484;0.026;2023-11-19T16:23:26;8.83;;;1.17;;
77417;SDS011;66490;51.484;0.026;2023-11-19T16:26:11;4.78;;;0.95;;
77417;SDS011;66490;51.484;0.026;2023-11-19T16:28:55;6.60;;;1.25;;
77417;SDS011;66490;51.484;0.026;2023-11-19T16:31:40;9.32;;;1.48;;
77417;SDS011;66490;51.484;0.026;2023-11-19T16:34:26;5.55;;;1.35;;